createdAt,value
2023-01-01T00:00:01.758Z,13.98
2023-01-01T00:05:03.033Z,13.94
2023-01-01T00:10:22.832Z,13.91
2023-01-01T00:15:24.067Z,13.92
2023-01-01T00:20:28.804Z,13.93
2023-01-01T00:25:34.523Z,13.88
2023-01-01T00:30:35.667Z,13.83
2023-01-01T00:35:36.847Z,13.78
2023-01-01T00:40:38.085Z,13.63
2023-01-01T00:45:39.374Z,13.56
2023-01-01T00:50:40.602Z,13.38
2023-01-01T00:55:41.751Z,13.25
2023-01-01T01:00:42.902Z,13.36
2023-01-01T01:05:44.060Z,13.34
2023-01-01T01:10:45.250Z,13.28
2023-01-01T01:15:49.229Z,13.13
2023-01-01T01:20:54.313Z,13.08
2023-01-01T01:25:55.514Z,13.10
2023-01-01T01:30:56.724Z,13.12
2023-01-01T01:35:57.981Z,13.19
2023-01-01T01:40:59.212Z,13.17
2023-01-01T01:46:00.471Z,13.13
2023-01-01T01:51:01.663Z,13.10
2023-01-01T01:56:02.841Z,13.20
2023-01-01T02:01:04.166Z,13.26
2023-01-01T02:06:05.537Z,13.17
2023-01-01T02:11:06.681Z,13.30
2023-01-01T02:16:07.845Z,13.19
2023-01-01T02:21:09.102Z,13.25
2023-01-01T02:26:10.291Z,13.25
2023-01-01T02:31:11.579Z,13.31
2023-01-01T02:36:12.738Z,13.37
2023-01-01T02:41:13.887Z,13.36
2023-01-01T02:51:15.142Z,13.43
2023-01-01T02:56:16.365Z,13.53
2023-01-01T03:01:17.602Z,13.54
2023-01-01T03:06:24.792Z,13.52
2023-01-01T03:11:26.019Z,13.48
2023-01-01T03:16:27.198Z,13.50
2023-01-01T03:21:28.365Z,13.60
2023-01-01T03:26:31.720Z,13.58
2023-01-01T03:31:33.052Z,13.73
2023-01-01T03:36:35.329Z,13.73
2023-01-01T03:41:36.611Z,13.85
2023-01-01T03:46:37.846Z,13.75
2023-01-01T03:51:39.101Z,13.72
2023-01-01T03:56:40.279Z,13.83
2023-01-01T04:01:41.585Z,13.80
2023-01-01T04:06:42.821Z,13.73
2023-01-01T04:12:04.095Z,13.69
2023-01-01T04:17:05.326Z,13.60
2023-01-01T04:22:06.494Z,13.55
2023-01-01T04:27:07.638Z,13.48
2023-01-01T04:32:08.799Z,13.42
2023-01-01T04:37:13.457Z,13.39
2023-01-01T04:42:15.040Z,13.40
2023-01-01T04:47:16.225Z,13.29
2023-01-01T04:52:17.423Z,13.33
2023-01-01T04:57:18.558Z,13.30
2023-01-01T05:02:19.898Z,13.28
2023-01-01T05:07:21.252Z,13.28
2023-01-01T05:12:22.405Z,13.21
2023-01-01T05:17:23.616Z,13.31
2023-01-01T05:22:24.877Z,13.33
2023-01-01T05:27:26.070Z,13.27
2023-01-01T05:32:28.331Z,13.32
2023-01-01T05:37:29.529Z,13.30
2023-01-01T05:42:30.682Z,13.20
2023-01-01T05:47:31.892Z,13.18
2023-01-01T05:52:33.065Z,13.17
2023-01-01T05:57:34.237Z,13.18
2023-01-01T06:02:35.392Z,13.10
2023-01-01T06:07:36.613Z,13.10
2023-01-01T06:12:37.831Z,13.06
2023-01-01T06:17:39.018Z,12.99
2023-01-01T06:22:40.229Z,12.82
2023-01-01T06:27:41.520Z,12.75
2023-01-01T06:32:42.976Z,12.68
2023-01-01T06:37:44.131Z,12.66
2023-01-01T06:42:45.331Z,12.67
2023-01-01T06:47:46.513Z,12.65
2023-01-01T06:52:47.750Z,12.66
2023-01-01T06:57:48.893Z,12.65
2023-01-01T07:02:50.336Z,12.70
2023-01-01T07:07:51.598Z,12.73
2023-01-01T07:12:52.841Z,12.68
2023-01-01T07:17:54.093Z,12.71
2023-01-01T07:22:55.270Z,12.68
2023-01-01T07:27:56.475Z,12.65
2023-01-01T07:32:57.604Z,12.61
2023-01-01T07:37:58.744Z,12.61
2023-01-01T07:42:59.977Z,12.56
2023-01-01T07:48:01.148Z,12.54
2023-01-01T07:53:02.376Z,12.55
2023-01-01T07:58:03.519Z,12.79
2023-01-01T08:03:05.565Z,12.92
2023-01-01T08:08:06.803Z,12.96
2023-01-01T08:13:07.988Z,13.04
2023-01-01T08:18:09.196Z,13.23
2023-01-01T08:23:10.454Z,13.23
2023-01-01T08:28:11.649Z,13.40
2023-01-01T08:33:12.860Z,13.52
2023-01-01T08:38:14.145Z,13.57
2023-01-01T08:43:15.390Z,13.57
2023-01-01T08:48:16.560Z,13.56
2023-01-01T08:53:17.773Z,13.59
2023-01-01T08:58:18.929Z,13.51
2023-01-01T09:03:20.242Z,13.56
2023-01-01T09:08:21.561Z,13.54
2023-01-01T09:13:22.706Z,13.49
2023-01-01T09:18:23.913Z,13.41
2023-01-01T09:23:25.158Z,13.36
2023-01-01T09:28:29.486Z,13.31
2023-01-01T09:33:30.752Z,13.37
2023-01-01T09:38:33.211Z,13.47
2023-01-01T09:43:34.408Z,13.40
2023-01-01T09:48:35.605Z,13.36
2023-01-01T09:53:36.849Z,13.37
2023-01-01T09:58:38.076Z,13.47
2023-01-01T10:03:39.363Z,13.48
2023-01-01T10:08:40.665Z,13.57
2023-01-01T10:13:42.043Z,13.71
2023-01-01T10:18:43.404Z,13.70
2023-01-01T10:23:44.721Z,13.69
2023-01-01T10:28:45.922Z,13.62
2023-01-01T10:33:47.592Z,13.56
2023-01-01T10:38:48.825Z,13.55
2023-01-01T10:43:50.100Z,13.50
2023-01-01T10:48:51.251Z,13.48
2023-01-01T10:53:52.908Z,13.56
2023-01-01T10:58:58.472Z,13.57
2023-01-01T11:03:59.753Z,13.62
2023-01-01T11:09:03.385Z,13.67
2023-01-01T11:14:06.048Z,13.71
2023-01-01T11:19:07.324Z,13.68
2023-01-01T11:24:08.473Z,13.66
2023-01-01T11:29:09.614Z,13.65
2023-01-01T11:34:10.756Z,13.59
2023-01-01T11:39:11.918Z,13.60
2023-01-01T11:44:13.099Z,13.53
2023-01-01T11:49:14.410Z,13.52
2023-01-01T11:54:15.646Z,13.53
2023-01-01T11:59:17.107Z,13.53
2023-01-01T12:04:18.294Z,13.54
2023-01-01T12:09:19.448Z,13.57
2023-01-01T12:14:20.679Z,13.59
2023-01-01T12:19:22.079Z,13.55
2023-01-01T12:24:23.401Z,13.54
2023-01-01T12:29:24.567Z,13.57
2023-01-01T12:34:25.876Z,13.51
2023-01-01T12:39:27.128Z,13.51
2023-01-01T12:44:28.297Z,13.53
2023-01-01T12:49:29.506Z,13.51
2023-01-01T12:54:30.739Z,13.46
2023-01-01T12:59:31.991Z,13.44
2023-01-01T13:04:33.157Z,13.43
2023-01-01T13:09:34.348Z,13.42
2023-01-01T13:14:35.623Z,13.44
2023-01-01T13:19:40.839Z,13.42
2023-01-01T13:24:42.010Z,13.44
2023-01-01T13:29:43.462Z,13.37
2023-01-01T13:34:44.646Z,13.36
2023-01-01T13:39:45.801Z,13.32
2023-01-01T13:44:47.021Z,13.30
2023-01-01T13:49:48.200Z,13.30
2023-01-01T13:54:49.394Z,13.27
2023-01-01T13:59:52.457Z,13.23
2023-01-01T14:04:53.752Z,13.20
2023-01-01T14:09:54.901Z,13.15
2023-01-01T14:14:56.086Z,13.13
2023-01-01T14:19:57.278Z,13.06
2023-01-01T14:24:59.377Z,13.04
2023-01-01T14:30:02.835Z,13.01
2023-01-01T14:35:04.057Z,12.98
2023-01-01T14:40:05.285Z,12.92
2023-01-01T14:45:06.524Z,12.91
2023-01-01T14:50:07.744Z,12.92
2023-01-01T14:55:08.907Z,12.91
2023-01-01T15:00:10.613Z,12.89
2023-01-01T15:05:11.761Z,12.96
2023-01-01T15:10:13.185Z,12.87
2023-01-01T15:15:14.333Z,12.89
2023-01-01T15:20:15.523Z,12.86
2023-01-01T15:25:16.733Z,12.72
2023-01-01T15:30:17.901Z,12.54
2023-01-01T15:35:19.083Z,12.51
2023-01-01T15:40:20.312Z,12.35
2023-01-01T15:45:21.965Z,12.22
2023-01-01T15:50:23.173Z,12.11
2023-01-01T15:55:24.338Z,11.97
2023-01-01T16:00:25.597Z,11.87
2023-01-01T16:05:26.762Z,11.78
2023-01-01T16:10:27.970Z,11.69
2023-01-01T16:15:29.136Z,11.65
2023-01-01T16:20:30.383Z,11.54
2023-01-01T16:25:31.583Z,11.47
2023-01-01T16:30:33.110Z,11.38
2023-01-01T16:35:34.335Z,11.32
2023-01-01T16:40:37.832Z,11.25
2023-01-01T16:45:39.145Z,11.17
2023-01-01T16:50:40.383Z,11.14
2023-01-01T16:55:41.595Z,11.11
2023-01-01T17:00:42.799Z,11.10
2023-01-01T17:05:44.781Z,11.05
2023-01-01T17:10:46.599Z,11.03
2023-01-01T17:15:47.831Z,11.01
2023-01-01T17:20:48.984Z,10.98
2023-01-01T17:25:50.145Z,10.94
2023-01-01T17:30:51.330Z,10.92
2023-01-01T17:35:52.556Z,10.89
2023-01-01T17:40:53.732Z,10.85
2023-01-01T17:45:55.012Z,10.81
2023-01-01T17:50:56.244Z,10.51
2023-01-01T17:55:57.415Z,10.75
2023-01-01T18:00:58.570Z,10.74
2023-01-01T18:05:59.742Z,10.74
2023-01-01T18:11:00.932Z,10.71
2023-01-01T18:16:02.305Z,10.68
2023-01-01T18:21:03.614Z,10.65
2023-01-01T18:26:04.773Z,10.63
2023-01-01T18:31:06.045Z,10.61
2023-01-01T18:36:07.229Z,10.61
2023-01-01T18:41:08.357Z,10.60
2023-01-01T18:46:09.897Z,10.60
2023-01-01T18:51:11.164Z,10.60
2023-01-01T18:56:12.454Z,10.59
2023-01-01T19:01:14.396Z,10.57
2023-01-01T19:06:15.689Z,10.57
2023-01-01T19:11:16.846Z,10.56
2023-01-01T19:16:23.810Z,10.58
2023-01-01T19:21:25.415Z,10.58
2023-01-01T19:26:26.632Z,10.58
2023-01-01T19:31:27.823Z,10.60
2023-01-01T19:36:29.105Z,10.58
2023-01-01T19:41:30.273Z,10.58
2023-01-01T19:46:31.511Z,10.56
2023-01-01T19:51:32.724Z,10.52
2023-01-01T19:56:33.925Z,10.51
2023-01-01T20:01:35.250Z,10.51
2023-01-01T20:06:37.764Z,10.51
2023-01-01T20:11:38.986Z,10.49
2023-01-01T20:16:40.517Z,10.50
2023-01-01T20:22:00.492Z,10.51
2023-01-01T20:27:01.666Z,10.53
2023-01-01T20:32:02.909Z,10.56
2023-01-01T20:37:22.795Z,10.60
2023-01-01T20:42:24.179Z,10.61
2023-01-01T20:47:25.377Z,10.68
2023-01-01T20:52:26.608Z,10.73
2023-01-01T20:57:27.816Z,10.75
2023-01-01T21:02:29.947Z,10.79
2023-01-01T21:07:31.320Z,10.82
2023-01-01T21:12:32.463Z,10.84
2023-01-01T21:17:33.727Z,10.92
2023-01-01T21:22:34.904Z,10.98
2023-01-01T21:27:36.166Z,11.02
2023-01-01T21:32:38.129Z,11.12
2023-01-01T21:37:49.577Z,11.18
2023-01-01T21:42:50.749Z,11.18
2023-01-01T21:47:51.991Z,11.21
2023-01-01T21:52:53.225Z,11.24
2023-01-01T21:58:20.953Z,11.28
2023-01-01T22:03:22.422Z,11.36
2023-01-01T22:08:24.131Z,11.41
2023-01-01T22:13:25.357Z,11.45
2023-01-01T22:18:26.956Z,11.49
2023-01-01T22:23:28.158Z,11.56
2023-01-01T22:28:29.339Z,11.58
2023-01-01T22:33:30.670Z,11.65
2023-01-01T22:38:31.847Z,11.76
2023-01-01T22:43:33.076Z,11.76
2023-01-01T22:48:34.294Z,11.77
2023-01-01T22:53:35.491Z,11.84
2023-01-01T22:58:36.724Z,11.87
2023-01-01T23:03:38.002Z,11.94
2023-01-01T23:08:39.244Z,11.97
2023-01-01T23:13:59.250Z,11.91
2023-01-01T23:19:00.444Z,11.93
2023-01-01T23:24:01.653Z,11.92
2023-01-01T23:29:02.883Z,11.94
2023-01-01T23:34:04.031Z,12.03
2023-01-01T23:39:05.202Z,12.10
2023-01-01T23:44:06.412Z,12.14
2023-01-01T23:49:07.697Z,12.14
2023-01-01T23:54:08.927Z,12.20
2023-01-01T23:59:11.877Z,12.25
